RJFF

Fukuoka Airport

Airport
ICAO code
RJFF
IATA Code
FUK
Summary
ICAO Region
APAC
ICAO Territory
Location

Hakata, Fukuoka Prefecture

Serving
Fukuoka
Elevation
30 ft
Coordinates
33° 35' 10" N , 130° 27' 4" E
KCC
Metar
Observation
RJFF 090530Z 06008KT 360V090 CAVOK 12/M01 Q1024 BECMG 10009KT RMK A3024
Station
Fukuoka Airport
Date/Time
2023-02-09 05:30:00
Wind direction
60°
Wind speed
08 kts
Lowest cloud amount
clouds and visibility OK
Temperature
12°C
Dew point
-1°C
Humidity
40%
QNH
1024 hPa
Weather condition
n/a

Fukuoka Airport, formerly known as Itazuke Air Base, is an international and domestic airport located 1.6 nm east of Hakata, Fukuoka, Japan.

Climatology

Humid Sub-tropical climate (Köppen climate classification Cfa)

Runways

Designator Length Width Surface Rops
16/34 2800 60 ASP Yes/Yes

Airport map

Aerial View

Airport accidents

SKYbrary Partners:

Safety knowledge contributed by: